Time;durP1;ratioP1;P1;durP2;ratioP2;P2;SDS_P1;SDS_P2;PMS_P1;PMS_P2;Temp;Humidity;BMP_temperature;BMP_pressure;BME280_temperature;BME280_humidity;BME280_pressure;Samples;Min_cycle;Max_cycle;Signal;HPM_P1;HPM_P2
2022/07/26 00:00:36;;;;;;;1.05;0.75;;;17.80;5.50;;;;;;5042360;28;34083;-75
2022/07/26 00:03:02;;;;;;;3.78;1.02;;;17.80;5.60;;;;;;5048012;28;34136;-75
2022/07/26 00:05:29;;;;;;;0.70;0.70;;;17.80;5.70;;;;;;5053643;28;36281;-76
2022/07/26 00:08:09;;;;;;;1.40;0.80;;;17.80;5.80;;;;;;5040064;27;34235;-75
2022/07/26 00:10:37;;;;;;;1.30;0.95;;;17.80;5.90;;;;;;5034923;27;34391;-76
2022/07/26 00:13:03;;;;;;;2.92;0.70;;;17.80;5.90;;;;;;5040963;28;34123;-75
2022/07/26 00:15:29;;;;;;;1.50;0.88;;;17.80;5.90;;;;;;5040767;28;35568;-76
2022/07/26 00:17:56;;;;;;;2.10;0.80;;;17.80;5.90;;;;;;5039370;28;34050;-75
2022/07/26 00:20:22;;;;;;;1.80;0.60;;;17.80;5.90;;;;;;5053408;28;34303;-76
2022/07/26 00:22:48;;;;;;;3.05;0.88;;;17.90;6.00;;;;;;5052919;28;34543;-76
2022/07/26 00:25:14;;;;;;;1.70;0.70;;;17.80;6.00;;;;;;5053026;28;35885;-76
2022/07/26 00:27:40;;;;;;;1.52;0.70;;;17.90;6.00;;;;;;5037312;28;34173;-77
2022/07/26 00:30:07;;;;;;;1.20;0.60;;;17.90;5.90;;;;;;5080136;27;34387;-77
2022/07/26 00:32:33;;;;;;;3.38;0.65;;;17.90;6.90;;;;;;5081507;27;34085;-77
2022/07/26 00:34:59;;;;;;;2.88;0.80;;;18.00;5.50;;;;;;5068829;28;35176;-76
2022/07/26 00:37:25;;;;;;;1.17;0.60;;;18.10;5.40;;;;;;5053234;28;34717;-77
2022/07/26 00:39:51;;;;;;;1.08;0.80;;;18.10;5.20;;;;;;5069574;27;34071;-77
2022/07/26 00:42:17;;;;;;;1.27;0.60;;;18.20;5.10;;;;;;5090818;27;34340;-76
2022/07/26 00:44:44;;;;;;;0.93;0.73;;;18.20;5.20;;;;;;5100038;27;36102;-76
2022/07/26 00:47:11;;;;;;;3.17;0.70;;;18.10;5.20;;;;;;5105360;27;34355;-77
2022/07/26 00:49:36;;;;;;;5.20;0.82;;;18.10;5.20;;;;;;5171630;27;34327;-77
2022/07/26 00:52:05;;;;;;;1.63;0.68;;;18.10;5.20;;;;;;5077873;28;34237;-77
2022/07/26 00:54:32;;;;;;;1.65;0.90;;;18.10;5.50;;;;;;5080875;28;34087;-77
2022/07/26 00:56:58;;;;;;;2.42;0.80;;;18.00;5.20;;;;;;5062967;27;34295;-76
2022/07/26 00:59:24;;;;;;;5.40;1.00;;;18.00;5.30;;;;;;5043331;27;34945;-77
2022/07/26 01:01:50;;;;;;;0.50;0.50;;;17.90;5.30;;;;;;5051261;28;34336;-77
2022/07/26 01:04:16;;;;;;;1.15;0.85;;;17.80;5.30;;;;;;5070835;27;35543;-77
2022/07/26 01:06:42;;;;;;;2.60;0.65;;;17.80;5.50;;;;;;5119738;27;34069;-76
2022/07/26 01:09:09;;;;;;;1.55;0.77;;;17.80;5.50;;;;;;5054869;27;34304;-77
2022/07/26 01:11:35;;;;;;;0.98;0.77;;;17.80;5.70;;;;;;5057676;28;34270;-77
2022/07/26 01:14:01;;;;;;;0.85;0.70;;;17.70;5.60;;;;;;5068723;28;35186;-77
2022/07/26 01:16:27;;;;;;;1.48;0.77;;;17.60;5.70;;;;;;5045848;28;34582;-77
2022/07/26 01:18:53;;;;;;;1.67;0.68;;;17.60;5.80;;;;;;5043661;28;34234;-77
2022/07/26 01:21:20;;;;;;;0.80;0.68;;;17.60;5.80;;;;;;5066921;28;34403;-77
2022/07/26 01:23:47;;;;;;;2.70;0.75;;;17.50;5.90;;;;;;5083129;27;34492;-76
2022/07/26 01:26:13;;;;;;;3.10;0.60;;;17.40;6.00;;;;;;5117854;27;34118;-76
2022/07/26 01:28:39;;;;;;;2.25;0.70;;;17.40;6.10;;;;;;5150736;27;34204;-76
2022/07/26 01:31:07;;;;;;;2.60;0.90;;;17.40;6.20;;;;;;5135111;27;34128;-76
2022/07/26 01:33:34;;;;;;;1.42;0.60;;;17.30;6.40;;;;;;5170022;27;34455;-76
2022/07/26 01:36:00;;;;;;;1.63;0.80;;;17.30;6.40;;;;;;5151161;27;34114;-76
2022/07/26 01:38:27;;;;;;;2.05;0.90;;;17.20;6.40;;;;;;5150993;27;34445;-76
2022/07/26 01:40:53;;;;;;;0.75;0.65;;;17.20;6.40;;;;;;5151405;27;34058;-76
2022/07/26 01:43:19;;;;;;;1.20;0.60;;;17.20;6.50;;;;;;5169188;27;34118;-76
2022/07/26 01:45:45;;;;;;;1.45;0.70;;;17.20;6.50;;;;;;5117424;27;34173;-76
2022/07/26 01:48:11;;;;;;;1.85;0.68;;;17.10;6.60;;;;;;5062011;28;34402;-77
2022/07/26 01:50:37;;;;;;;0.70;0.70;;;17.10;6.70;;;;;;5065549;27;34332;-78
2022/07/26 01:53:03;;;;;;;0.80;0.80;;;17.10;6.90;;;;;;5068449;28;35789;-77
2022/07/26 01:55:29;;;;;;;0.85;0.85;;;17.10;6.90;;;;;;5086783;27;34325;-78
2022/07/26 01:57:55;;;;;;;1.85;0.70;;;17.00;6.80;;;;;;5048512;28;34213;-76
2022/07/26 02:00:21;;;;;;;2.63;0.70;;;17.00;6.90;;;;;;5114479;27;34612;-76
2022/07/26 02:02:47;;;;;;;1.05;0.60;;;17.00;7.00;;;;;;5150460;27;35999;-76
2022/07/26 02:05:13;;;;;;;1.25;0.75;;;17.00;7.10;;;;;;5068121;27;34344;-77
2022/07/26 02:07:42;;;;;;;1.98;0.80;;;16.90;7.10;;;;;;5112672;27;34174;-77
2022/07/26 02:10:10;;;;;;;1.05;0.70;;;16.90;7.30;;;;;;5132901;27;34166;-77
2022/07/26 02:12:36;;;;;;;1.55;0.90;;;16.90;7.20;;;;;;5168310;27;35352;-77
2022/07/26 02:15:04;;;;;;;7.47;0.85;;;16.90;7.20;;;;;;5053723;28;34133;-77
2022/07/26 02:17:30;;;;;;;0.82;0.77;;;16.90;7.50;;;;;;5028771;28;34510;-77
2022/07/26 02:19:56;;;;;;;1.13;0.75;;;16.90;7.40;;;;;;5104565;27;34525;-77
2022/07/26 02:22:22;;;;;;;3.08;0.90;;;16.90;7.40;;;;;;5140217;27;35680;-77
2022/07/26 02:24:49;;;;;;;1.35;0.90;;;16.90;7.50;;;;;;5059719;27;34503;-78
2022/07/26 02:27:15;;;;;;;2.25;0.88;;;17.00;7.40;;;;;;5153209;27;34182;-77
2022/07/26 02:29:41;;;;;;;1.65;0.80;;;17.10;7.40;;;;;;5133195;27;34040;-77
2022/07/26 02:32:09;;;;;;;2.00;0.85;;;17.10;7.30;;;;;;5074231;27;35727;-77
2022/07/26 02:34:36;;;;;;;2.85;0.98;;;17.10;7.30;;;;;;5167243;27;34252;-77
2022/07/26 02:37:02;;;;;;;1.42;1.00;;;17.10;7.30;;;;;;5168545;27;34254;-77
2022/07/26 02:39:28;;;;;;;2.85;0.70;;;17.20;7.40;;;;;;5095293;27;34301;-77
2022/07/26 02:41:56;;;;;;;3.60;1.13;;;17.20;7.30;;;;;;5060057;28;36425;-77
2022/07/26 02:44:23;;;;;;;2.03;0.82;;;17.30;7.40;;;;;;5047884;28;34117;-77
2022/07/26 02:46:50;;;;;;;1.67;1.10;;;17.30;7.40;;;;;;5078426;28;34326;-77
2022/07/26 02:49:16;;;;;;;4.20;0.98;;;17.30;7.20;;;;;;5063350;28;34088;-77
2022/07/26 02:51:42;;;;;;;1.33;0.70;;;17.30;7.30;;;;;;5098035;27;36445;-77
2022/07/26 02:54:08;;;;;;;2.00;0.70;;;17.30;7.30;;;;;;5068067;27;34438;-77
2022/07/26 02:56:34;;;;;;;1.55;0.80;;;17.40;7.30;;;;;;5050272;27;34256;-78
2022/07/26 02:59:00;;;;;;;0.95;0.88;;;17.40;7.30;;;;;;5048471;27;34353;-77
2022/07/26 03:01:26;;;;;;;3.83;0.90;;;17.30;7.30;;;;;;5099857;27;36664;-77
2022/07/26 03:03:52;;;;;;;3.88;0.90;;;17.30;7.40;;;;;;5073646;27;34529;-77
2022/07/26 03:06:18;;;;;;;1.42;0.70;;;17.30;7.40;;;;;;5064493;27;34267;-77
2022/07/26 03:08:46;;;;;;;0.93;0.82;;;17.30;7.60;;;;;;5051893;27;34162;-78
2022/07/26 03:11:31;;;;;;;2.85;1.15;;;17.30;7.60;;;;;;5074658;27;35798;-78
2022/07/26 03:13:57;;;;;;;4.57;1.00;;;17.30;10.00;;;;;;5058263;28;34167;-78
2022/07/26 03:16:23;;;;;;;0.82;0.80;;;17.30;7.70;;;;;;5062751;28;34139;-77
2022/07/26 03:18:49;;;;;;;2.50;0.73;;;17.30;7.70;;;;;;5044557;28;34174;-77
2022/07/26 03:21:15;;;;;;;2.75;1.15;;;17.30;7.90;;;;;;5028196;27;36335;-77
2022/07/26 03:23:41;;;;;;;0.73;0.60;;;17.30;7.80;;;;;;5042450;27;34352;-77
2022/07/26 03:26:07;;;;;;;1.23;0.80;;;17.30;7.80;;;;;;5064558;27;34337;-77
2022/07/26 03:28:34;;;;;;;2.72;1.10;;;17.40;7.90;;;;;;5058205;28;34178;-77
2022/07/26 03:31:00;;;;;;;2.97;0.90;;;17.40;7.90;;;;;;5081866;28;34222;-77
2022/07/26 03:33:27;;;;;;;2.60;0.90;;;17.40;7.80;;;;;;5055059;28;34466;-77
2022/07/26 03:35:53;;;;;;;1.42;0.88;;;17.40;7.80;;;;;;5073336;27;34427;-78
2022/07/26 03:38:19;;;;;;;2.97;0.88;;;17.50;7.80;;;;;;5062461;28;34313;-77
2022/07/26 03:40:45;;;;;;;1.08;0.60;;;17.50;7.80;;;;;;5075716;28;35917;-77
2022/07/26 03:43:11;;;;;;;2.67;1.10;;;17.50;7.80;;;;;;5085276;27;34066;-78
2022/07/26 03:45:37;;;;;;;1.10;1.00;;;17.50;7.80;;;;;;5078086;27;34179;-77
2022/07/26 03:48:03;;;;;;;2.45;1.00;;;17.60;7.80;;;;;;5057813;28;34098;-77
2022/07/26 03:50:29;;;;;;;1.05;0.95;;;17.60;7.70;;;;;;5062489;27;35909;-77
2022/07/26 03:52:55;;;;;;;2.28;1.02;;;17.60;7.70;;;;;;5027318;28;34024;-77
2022/07/26 03:58:03;;;;;;;1.20;1.02;;;17.70;7.70;;;;;;5057690;28;34283;-77
2022/07/26 04:00:28;;;;;;;1.08;0.90;;;17.70;7.80;;;;;;5044031;27;35847;-77
2022/07/26 04:02:54;;;;;;;2.10;1.00;;;17.70;7.70;;;;;;5052701;28;34327;-77
2022/07/26 04:05:20;;;;;;;2.63;0.73;;;17.70;7.70;;;;;;5060508;28;34132;-77
2022/07/26 04:07:46;;;;;;;2.92;0.90;;;17.80;7.60;;;;;;5085975;27;34005;-77
2022/07/26 04:10:14;;;;;;;1.00;0.77;;;17.80;7.60;;;;;;5063959;28;35656;-77
2022/07/26 04:12:40;;;;;;;1.02;0.80;;;17.80;7.60;;;;;;5063345;28;34138;-77
2022/07/26 04:15:07;;;;;;;2.22;1.00;;;17.90;7.60;;;;;;5061619;27;34317;-78
2022/07/26 04:17:42;;;;;;;2.55;0.98;;;17.90;7.70;;;;;;5060063;27;34058;-79
2022/07/26 04:20:10;;;;;;;2.33;1.13;;;17.90;8.70;;;;;;5099588;27;34150;-77
2022/07/26 04:22:37;;;;;;;3.58;1.10;;;17.90;7.70;;;;;;5065905;27;34234;-76
2022/07/26 04:25:05;;;;;;;2.70;1.40;;;17.90;7.70;;;;;;5067609;27;34214;-77
2022/07/26 04:27:32;;;;;;;1.98;1.02;;;17.80;7.80;;;;;;5031427;28;34297;-77
2022/07/26 04:29:58;;;;;;;4.55;1.40;;;17.90;7.80;;;;;;5127398;27;35697;-77
2022/07/26 04:32:24;;;;;;;3.80;1.10;;;17.90;7.80;;;;;;5062642;27;34340;-77
2022/07/26 04:34:50;;;;;;;1.52;1.13;;;17.90;7.80;;;;;;5043555;28;34205;-77
2022/07/26 04:37:16;;;;;;;1.52;0.90;;;17.90;7.80;;;;;;5073553;28;34317;-77
2022/07/26 04:39:42;;;;;;;4.75;1.27;;;17.90;7.80;;;;;;5041852;28;34340;-77
2022/07/26 04:42:09;;;;;;;1.83;1.27;;;18.00;7.70;;;;;;5108146;27;34273;-77
2022/07/26 04:44:35;;;;;;;2.60;1.30;;;18.00;7.70;;;;;;5092284;27;34446;-76
2022/07/26 04:47:01;;;;;;;1.95;1.20;;;18.00;7.70;;;;;;5054302;28;34235;-76
2022/07/26 04:49:26;;;;;;;2.15;1.25;;;18.00;7.70;;;;;;5023366;28;35392;-77
2022/07/26 04:51:52;;;;;;;4.32;1.23;;;18.10;7.70;;;;;;5064924;27;34649;-76
2022/07/26 04:54:21;;;;;;;1.10;1.00;;;18.10;7.70;;;;;;5049846;27;34766;-77
2022/07/26 04:56:47;;;;;;;1.92;1.25;;;18.10;7.70;;;;;;5043118;28;34101;-76
2022/07/26 04:59:14;;;;;;;2.33;1.00;;;18.10;7.70;;;;;;5042564;28;35616;-77
2022/07/26 05:01:40;;;;;;;5.50;1.20;;;18.10;7.70;;;;;;5088672;27;34193;-77
2022/07/26 05:04:06;;;;;;;3.25;1.25;;;18.10;7.70;;;;;;5059898;28;34222;-77
2022/07/26 05:06:32;;;;;;;7.25;1.00;;;18.10;8.30;;;;;;5059731;27;34295;-77
2022/07/26 05:08:58;;;;;;;4.53;1.50;;;18.20;7.70;;;;;;5072925;28;35762;-77
2022/07/26 05:11:24;;;;;;;1.20;1.10;;;18.20;7.60;;;;;;5038159;28;33974;-77
2022/07/26 05:13:50;;;;;;;3.70;1.13;;;18.10;7.80;;;;;;5027934;28;34195;-77
2022/07/26 05:16:16;;;;;;;6.32;1.25;;;18.10;7.70;;;;;;5049213;28;34620;-77
2022/07/26 05:18:42;;;;;;;3.75;1.20;;;18.20;7.80;;;;;;5066449;28;34344;-77
2022/07/26 05:21:08;;;;;;;3.10;1.05;;;18.20;7.70;;;;;;5053350;28;34393;-77
2022/07/26 05:23:34;;;;;;;2.03;1.17;;;18.30;7.70;;;;;;5057620;28;34926;-77
2022/07/26 05:26:00;;;;;;;2.50;1.20;;;18.30;7.80;;;;;;5060676;28;34160;-76
2022/07/26 05:28:26;;;;;;;2.40;1.10;;;18.30;7.70;;;;;;5042085;27;36128;-76
2022/07/26 05:30:52;;;;;;;2.33;1.20;;;18.40;7.70;;;;;;5050353;28;34390;-76
2022/07/26 05:33:17;;;;;;;3.20;0.95;;;18.40;7.60;;;;;;5049982;27;34264;-76
2022/07/26 05:35:43;;;;;;;1.10;0.93;;;18.40;7.80;;;;;;5040940;27;34077;-77
2022/07/26 05:38:10;;;;;;;3.35;1.10;;;18.50;7.80;;;;;;5061828;27;35252;-77
2022/07/26 05:40:35;;;;;;;3.53;1.40;;;18.50;7.70;;;;;;5043883;28;34140;-77
2022/07/26 05:43:03;;;;;;;1.95;1.10;;;18.50;7.60;;;;;;5059689;28;34182;-77
2022/07/26 05:45:29;;;;;;;2.42;1.17;;;18.50;7.60;;;;;;5026933;28;34238;-76
2022/07/26 05:47:55;;;;;;;2.90;1.30;;;18.50;7.60;;;;;;5043285;28;35736;-77
2022/07/26 05:50:21;;;;;;;1.70;0.93;;;18.60;7.60;;;;;;5062877;28;34302;-77
2022/07/26 05:52:48;;;;;;;1.98;1.20;;;18.60;7.60;;;;;;5057765;28;34250;-77
2022/07/26 05:55:14;;;;;;;3.67;1.40;;;18.70;7.60;;;;;;5043471;28;34511;-78
2022/07/26 05:57:40;;;;;;;1.80;1.30;;;18.70;7.50;;;;;;5100401;27;35805;-76
2022/07/26 06:00:08;;;;;;;2.67;1.40;;;18.70;7.50;;;;;;5058461;27;34367;-78
2022/07/26 06:02:34;;;;;;;4.22;1.90;;;18.80;7.60;;;;;;5062780;28;34187;-77
2022/07/26 06:05:00;;;;;;;2.92;1.42;;;18.80;7.50;;;;;;5046085;28;34238;-76
2022/07/26 06:07:26;;;;;;;3.30;1.40;;;18.80;7.50;;;;;;5070826;28;37207;-77
2022/07/26 06:09:52;;;;;;;2.38;1.17;;;18.80;7.50;;;;;;5076557;28;34517;-77
2022/07/26 06:12:18;;;;;;;2.97;1.40;;;18.90;7.50;;;;;;5045246;28;34177;-77
2022/07/26 06:14:44;;;;;;;2.25;1.10;;;19.00;7.40;;;;;;5044553;28;34197;-77
2022/07/26 06:17:28;;;;;;;3.00;1.10;;;19.00;7.30;;;;;;5046810;28;34388;-77
2022/07/26 06:19:55;;;;;;;1.85;1.08;;;19.00;7.30;;;;;;5031573;28;34385;-77
2022/07/26 06:22:21;;;;;;;3.35;1.10;;;19.00;7.30;;;;;;5045057;28;34206;-77
2022/07/26 06:24:47;;;;;;;4.68;1.42;;;19.00;7.30;;;;;;5044978;27;34388;-76
2022/07/26 06:27:15;;;;;;;4.13;1.42;;;19.00;7.30;;;;;;5027468;28;36544;-78
2022/07/26 06:29:42;;;;;;;5.97;1.30;;;19.00;7.30;;;;;;5043996;28;34284;-77
2022/07/26 06:32:08;;;;;;;2.28;1.50;;;19.00;7.40;;;;;;5044078;28;34041;-77
2022/07/26 06:34:34;;;;;;;5.22;1.60;;;19.10;7.40;;;;;;5080358;28;34110;-77
2022/07/26 06:37:00;;;;;;;4.47;1.35;;;19.10;7.30;;;;;;5044395;28;36497;-76
2022/07/26 06:39:26;;;;;;;2.47;1.30;;;19.20;7.20;;;;;;5062288;28;34201;-77
2022/07/26 06:41:52;;;;;;;4.93;1.13;;;19.20;7.10;;;;;;5045434;28;34550;-76
2022/07/26 06:44:17;;;;;;;2.95;1.23;;;19.30;7.10;;;;;;5063868;28;34167;-76
2022/07/26 06:46:43;;;;;;;2.85;1.58;;;19.40;7.00;;;;;;5058376;27;35717;-77
2022/07/26 06:49:09;;;;;;;6.88;1.75;;;19.40;6.90;;;;;;5055267;27;34210;-78
2022/07/26 06:51:35;;;;;;;2.67;1.52;;;19.50;6.90;;;;;;5028644;28;34517;-77
2022/07/26 06:54:02;;;;;;;3.17;1.38;;;19.50;7.30;;;;;;5062337;28;34544;-77
2022/07/26 06:56:28;;;;;;;4.05;1.20;;;19.60;6.80;;;;;;5045087;28;34338;-77
2022/07/26 06:58:55;;;;;;;6.00;1.33;;;19.60;6.70;;;;;;5025911;28;34293;-77
2022/07/26 07:01:22;;;;;;;1.85;1.40;;;19.60;6.60;;;;;;5075645;28;34219;-78
2022/07/26 07:03:48;;;;;;;2.25;1.30;;;19.70;6.70;;;;;;5025981;28;34035;-77
2022/07/26 07:06:14;;;;;;;3.70;1.48;;;19.70;6.70;;;;;;5059129;27;35534;-76
2022/07/26 07:08:40;;;;;;;3.60;1.17;;;19.70;6.70;;;;;;5046461;27;34386;-77
2022/07/26 07:11:07;;;;;;;3.15;1.48;;;19.70;6.60;;;;;;5162820;27;34297;-78
2022/07/26 07:13:33;;;;;;;4.05;1.60;;;19.70;6.60;;;;;;5127192;27;34040;-78
2022/07/26 07:15:59;;;;;;;3.03;1.50;;;19.70;6.70;;;;;;5028440;28;35802;-76
2022/07/26 07:18:25;;;;;;;2.78;1.50;;;19.70;6.70;;;;;;5058627;27;34202;-76
2022/07/26 07:20:52;;;;;;;2.00;1.40;;;19.80;6.60;;;;;;5047744;28;34225;-77
2022/07/26 07:23:21;;;;;;;3.83;1.35;;;19.80;6.60;;;;;;5038801;28;34194;-77
2022/07/26 07:25:47;;;;;;;2.50;1.27;;;19.80;6.50;;;;;;5044473;28;35874;-78
2022/07/26 07:28:13;;;;;;;4.25;1.30;;;19.90;6.40;;;;;;5058527;27;34332;-77
2022/07/26 07:30:39;;;;;;;4.45;1.70;;;20.00;6.40;;;;;;5045210;27;34186;-77
2022/07/26 07:33:06;;;;;;;5.72;1.70;;;20.10;6.30;;;;;;5065337;27;34238;-77
2022/07/26 07:35:32;;;;;;;2.20;1.55;;;20.10;6.20;;;;;;5045408;28;34771;-77
2022/07/26 07:37:58;;;;;;;4.65;1.30;;;20.20;6.00;;;;;;5078998;27;34267;-77
2022/07/26 07:40:24;;;;;;;4.32;1.33;;;20.20;6.00;;;;;;5123877;27;34465;-77
2022/07/26 07:42:50;;;;;;;3.65;1.50;;;20.30;6.10;;;;;;5045020;27;34485;-77
2022/07/26 07:45:16;;;;;;;2.88;1.60;;;20.30;6.00;;;;;;5038275;28;36422;-76
2022/07/26 07:47:42;;;;;;;4.35;1.45;;;20.30;6.00;;;;;;5103645;27;34195;-76
2022/07/26 07:50:08;;;;;;;1.42;1.27;;;20.40;5.90;;;;;;5035866;28;34098;-77
2022/07/26 07:52:34;;;;;;;3.15;1.40;;;20.40;5.80;;;;;;5113080;27;34084;-76
2022/07/26 07:55:00;;;;;;;2.60;1.35;;;20.40;5.80;;;;;;5037494;28;36382;-77
2022/07/26 07:57:26;;;;;;;4.10;1.40;;;20.40;5.80;;;;;;5077422;27;33732;-78
2022/07/26 07:59:52;;;;;;;1.83;1.42;;;20.40;5.70;;;;;;5040145;28;34501;-77
2022/07/26 08:02:18;;;;;;;5.57;1.77;;;20.50;5.70;;;;;;5063600;28;33845;-77
2022/07/26 08:04:44;;;;;;;2.22;1.50;;;20.50;5.60;;;;;;5046997;28;35661;-76
2022/07/26 08:07:10;;;;;;;5.93;1.55;;;20.50;5.60;;;;;;5065392;27;34288;-77
2022/07/26 08:09:36;;;;;;;3.08;1.30;;;20.60;5.50;;;;;;5094478;27;34243;-77
2022/07/26 08:12:02;;;;;;;1.67;1.00;;;20.60;5.40;;;;;;5058741;27;34548;-77
2022/07/26 08:14:28;;;;;;;3.70;1.30;;;20.70;5.50;;;;;;5026609;28;36803;-77
2022/07/26 08:16:54;;;;;;;4.32;1.48;;;20.70;5.40;;;;;;5050758;28;34062;-76
2022/07/26 08:19:21;;;;;;;1.90;1.45;;;20.70;5.40;;;;;;5056936;27;34136;-77
2022/07/26 08:21:46;;;;;;;3.90;1.23;;;20.70;5.40;;;;;;5023751;28;34000;-77
2022/07/26 08:24:12;;;;;;;2.35;1.52;;;20.70;5.40;;;;;;5057418;28;36485;-77
2022/07/26 08:26:38;;;;;;;2.45;1.30;;;20.70;5.40;;;;;;5023219;28;34163;-77
2022/07/26 08:29:05;;;;;;;2.60;1.50;;;20.70;5.40;;;;;;5053899;28;34280;-77
2022/07/26 08:31:31;;;;;;;2.22;1.60;;;20.60;5.40;;;;;;5040641;28;34412;-77
2022/07/26 08:33:58;;;;;;;2.65;1.23;;;20.60;5.40;;;;;;5040132;28;34893;-77
2022/07/26 08:36:25;;;;;;;1.98;1.27;;;20.70;5.50;;;;;;5042830;28;34108;-76
2022/07/26 08:38:54;;;;;;;4.90;1.70;;;20.80;5.20;;;;;;5025368;27;34369;-79
2022/07/26 08:41:22;;;;;;;3.72;1.35;;;21.00;5.20;;;;;;5032229;27;34375;-77
2022/07/26 08:43:48;;;;;;;2.80;1.30;;;21.20;4.90;;;;;;5024135;27;35957;-78
2022/07/26 08:46:15;;;;;;;2.13;1.40;;;21.50;4.70;;;;;;5045908;28;34158;-78
2022/07/26 08:48:41;;;;;;;2.78;1.63;;;21.60;4.40;;;;;;5036415;28;34170;-77
2022/07/26 08:51:08;;;;;;;2.75;1.40;;;21.80;4.20;;;;;;5034845;28;34410;-77
2022/07/26 08:53:37;;;;;;;2.33;1.38;;;21.90;4.00;;;;;;5039889;28;35607;-78
2022/07/26 08:56:04;;;;;;;2.15;1.70;;;22.00;3.60;;;;;;5040658;28;34262;-77
2022/07/26 08:58:34;;;;;;;3.22;1.20;;;22.10;3.50;;;;;;5039592;28;34149;-77
2022/07/26 09:01:06;;;;;;;1.33;1.10;;;22.20;3.40;;;;;;5048409;27;34521;-77
2022/07/26 09:03:32;;;;;;;3.45;1.38;;;22.30;3.30;;;;;;5121825;27;35701;-77
2022/07/26 09:06:18;;;;;;;5.40;1.63;;;22.40;3.10;;;;;;5065831;27;34058;-78
2022/07/26 09:08:47;;;;;;;4.15;1.23;;;22.60;2.90;;;;;;5043000;27;34384;-78
2022/07/26 09:11:30;;;;;;;3.78;1.45;;;22.70;2.80;;;;;;5061371;27;34124;-77
2022/07/26 09:14:00;;;;;;;3.60;1.40;;;22.70;2.00;;;;;;5058368;27;36817;-77
2022/07/26 09:16:27;;;;;;;3.38;1.35;;;22.80;2.40;;;;;;5070324;28;34486;-77
2022/07/26 09:18:54;;;;;;;2.75;1.27;;;23.00;2.20;;;;;;5039608;28;34555;-77
2022/07/26 09:21:31;;;;;;;2.72;1.45;;;23.00;2.20;;;;;;5042131;28;34475;-78
2022/07/26 09:23:59;;;;;;;1.80;1.20;;;23.10;1.80;;;;;;5027630;28;36879;-76
2022/07/26 09:26:26;;;;;;;1.70;1.25;;;23.50;1.60;;;;;;5062371;28;34138;-77
2022/07/26 09:29:09;;;;;;;2.75;1.58;;;24.00;1.50;;;;;;5063273;28;34306;-77
2022/07/26 09:31:36;;;;;;;1.50;1.10;;;24.40;1.00;;;;;;5042099;28;34027;-77
2022/07/26 09:34:03;;;;;;;2.75;1.42;;;24.90;1.00;;;;;;5059699;28;36031;-77
2022/07/26 09:36:30;;;;;;;3.42;1.40;;;25.10;1.00;;;;;;5049111;28;34384;-77
2022/07/26 09:39:01;;;;;;;4.18;1.45;;;25.10;1.00;;;;;;5057917;28;34229;-77
2022/07/26 09:41:32;;;;;;;1.15;1.05;;;25.10;1.00;;;;;;5072052;27;34126;-77
2022/07/26 09:44:03;;;;;;;4.22;1.30;;;25.00;1.00;;;;;;5119325;27;35677;-77
2022/07/26 09:46:31;;;;;;;3.05;1.55;;;25.00;1.00;;;;;;5170408;27;34411;-77
2022/07/26 09:49:15;;;;;;;1.67;1.25;;;25.20;1.00;;;;;;5074281;27;34515;-77
2022/07/26 09:51:46;;;;;;;1.90;1.40;;;25.20;1.00;;;;;;5066118;28;34653;-78
2022/07/26 09:54:19;;;;;;;3.20;1.40;;;25.40;1.00;;;;;;5070924;27;35701;-77
2022/07/26 09:56:48;;;;;;;1.42;1.30;;;25.50;1.00;;;;;;5067210;27;34169;-77
2022/07/26 09:59:18;;;;;;;4.05;1.67;;;25.60;1.00;;;;;;5066189;27;34542;-80
2022/07/26 10:01:45;;;;;;;1.45;1.17;;;25.80;1.00;;;;;;5052802;27;34470;-77
2022/07/26 10:04:12;;;;;;;3.08;1.23;;;25.70;1.00;;;;;;5057953;28;35930;-77
2022/07/26 10:06:38;;;;;;;2.80;1.40;;;25.80;1.00;;;;;;5089527;27;34244;-77
2022/07/26 10:09:05;;;;;;;1.52;1.10;;;25.80;1.00;;;;;;5070262;28;34301;-77
2022/07/26 10:11:39;;;;;;;2.50;1.30;;;25.80;1.00;;;;;;5048693;28;34378;-77
2022/07/26 10:14:36;;;;;;;4.65;1.83;;;25.80;1.00;;;;;;5048378;28;35621;-77
2022/07/26 10:17:33;;;;;;;2.35;1.20;;;25.80;1.00;;;;;;5038514;28;34412;-77
2022/07/26 10:20:03;;;;;;;3.55;1.25;;;25.70;1.00;;;;;;5074236;27;34450;-76
2022/07/26 10:22:33;;;;;;;1.40;1.30;;;25.50;1.00;;;;;;5042780;27;34439;-77
2022/07/26 10:25:35;;;;;;;2.17;1.25;;;25.40;1.00;;;;;;5044187;28;35742;-76
2022/07/26 10:28:01;;;;;;;3.40;1.50;;;25.20;1.00;;;;;;5043769;28;34209;-77
2022/07/26 10:30:28;;;;;;;1.90;1.50;;;25.10;1.00;;;;;;5140573;27;34261;-77
2022/07/26 10:32:59;;;;;;;2.22;1.20;;;25.10;1.00;;;;;;5138680;27;34183;-77
2022/07/26 10:35:39;;;;;;;2.38;1.35;;;25.20;1.00;;;;;;5132656;27;36061;-77
2022/07/26 10:38:08;;;;;;;1.30;1.17;;;25.30;1.00;;;;;;5148473;27;34156;-77
2022/07/26 10:40:36;;;;;;;1.70;1.08;;;25.30;1.00;;;;;;5105078;27;34377;-77
2022/07/26 10:43:13;;;;;;;1.92;1.05;;;25.40;1.00;;;;;;5088927;27;34247;-77
2022/07/26 10:45:40;;;;;;;1.33;1.23;;;25.50;1.00;;;;;;5090434;27;34407;-79
2022/07/26 10:48:14;;;;;;;1.40;1.30;;;25.50;1.00;;;;;;5099976;27;34246;-78
2022/07/26 10:50:44;;;;;;;1.95;1.15;;;25.40;1.00;;;;;;5084575;27;34170;-77
2022/07/26 10:56:03;;;;;;;1.20;1.10;;;25.40;1.00;;;;;;5167785;27;34461;-77
2022/07/26 10:58:42;;;;;;;1.90;0.95;;;25.30;1.00;;;;;;5098335;28;34258;-79
2022/07/26 11:01:08;;;;;;;1.20;1.10;;;25.30;1.00;;;;;;5065987;27;34415;-77
2022/07/26 11:03:38;;;;;;;1.85;1.10;;;25.30;1.00;;;;;;5073973;27;34132;-78
2022/07/26 11:06:14;;;;;;;1.55;1.10;;;25.30;1.00;;;;;;5065543;28;35916;-77
2022/07/26 11:08:40;;;;;;;3.15;1.10;;;25.20;1.00;;;;;;5064483;28;34432;-77
2022/07/26 11:11:06;;;;;;;1.35;0.90;;;25.40;1.00;;;;;;5129988;27;34273;-78
2022/07/26 11:13:35;;;;;;;1.83;1.20;;;25.50;1.00;;;;;;5151197;27;34296;-79
2022/07/26 11:16:05;;;;;;;3.25;1.10;;;25.60;1.00;;;;;;5103855;27;36807;-78
2022/07/26 11:18:34;;;;;;;2.55;1.23;;;25.90;1.00;;;;;;5051119;28;34408;-78
2022/07/26 11:21:10;;;;;;;1.35;1.00;;;26.20;1.00;;;;;;5049199;28;34154;-78
2022/07/26 11:23:39;;;;;;;1.10;1.00;;;26.20;1.00;;;;;;5096484;27;34322;-79
2022/07/26 11:26:07;;;;;;;1.58;0.98;;;26.20;1.00;;;;;;5150265;27;35567;-77
2022/07/26 11:28:51;;;;;;;1.33;1.20;;;26.20;1.00;;;;;;5149809;27;34344;-78
2022/07/26 11:31:19;;;;;;;3.33;1.17;;;26.20;1.00;;;;;;5143169;27;34317;-78
2022/07/26 11:33:49;;;;;;;2.08;1.33;;;26.20;1.00;;;;;;5049009;28;34119;-78
2022/07/26 11:36:17;;;;;;;3.70;1.20;;;26.40;1.00;;;;;;5020676;27;36290;-78
2022/07/26 11:38:49;;;;;;;1.50;1.08;;;26.40;1.00;;;;;;5054734;27;34335;-78
2022/07/26 11:41:20;;;;;;;0.70;0.70;;;26.60;1.00;;;;;;5080653;27;34423;-77
2022/07/26 11:43:48;;;;;;;1.30;1.02;;;26.70;1.00;;;;;;5037641;28;34185;-77
2022/07/26 11:46:15;;;;;;;1.20;1.02;;;26.80;1.00;;;;;;5154418;27;34490;-77
2022/07/26 11:48:47;;;;;;;1.10;0.90;;;27.10;1.00;;;;;;5125358;27;34165;-77
2022/07/26 11:51:16;;;;;;;5.47;1.08;;;27.30;1.00;;;;;;5061139;27;34210;-78
2022/07/26 11:53:42;;;;;;;2.38;0.90;;;27.20;1.00;;;;;;5079047;27;35608;-77
2022/07/26 11:56:11;;;;;;;0.88;0.70;;;27.20;1.00;;;;;;5101469;27;36258;-77
2022/07/26 11:58:40;;;;;;;1.30;0.90;;;27.00;1.00;;;;;;5047374;28;34211;-77
2022/07/26 12:01:08;;;;;;;1.95;1.05;;;26.90;1.00;;;;;;5048648;28;34170;-78
2022/07/26 12:03:38;;;;;;;1.98;1.00;;;26.70;1.00;;;;;;5097532;27;34261;-77
2022/07/26 12:06:09;;;;;;;1.33;0.68;;;26.60;1.00;;;;;;5063559;27;34335;-77
2022/07/26 12:08:45;;;;;;;1.10;0.90;;;26.40;1.00;;;;;;5028016;28;34155;-77
2022/07/26 12:11:12;;;;;;;2.20;1.10;;;26.40;1.00;;;;;;5064151;27;34060;-77
2022/07/26 12:13:55;;;;;;;4.00;1.05;;;26.20;1.00;;;;;;5072779;27;34422;-79
2022/07/26 12:16:41;;;;;;;1.80;0.80;;;26.20;1.00;;;;;;5044925;28;36530;-77
2022/07/26 12:19:23;;;;;;;0.85;0.85;;;26.10;1.00;;;;;;5043469;28;34115;-77
2022/07/26 12:21:54;;;;;;;4.63;0.88;;;26.10;1.00;;;;;;5029614;28;34271;-77
2022/07/26 12:24:38;;;;;;;1.35;0.90;;;26.00;1.00;;;;;;5043968;28;34289;-78
2022/07/26 12:27:12;;;;;;;1.25;0.82;;;26.00;1.00;;;;;;5117917;27;35795;-78
2022/07/26 12:29:40;;;;;;;1.10;0.88;;;25.90;1.00;;;;;;5143700;27;34162;-79
2022/07/26 12:32:09;;;;;;;2.75;0.90;;;25.90;1.00;;;;;;5149898;27;34201;-77
2022/07/26 12:34:37;;;;;;;2.33;0.98;;;25.90;1.00;;;;;;5149341;27;34076;-77
2022/07/26 12:37:14;;;;;;;1.70;0.90;;;25.90;1.00;;;;;;5136251;27;36095;-78
2022/07/26 12:39:41;;;;;;;0.80;0.80;;;26.00;1.00;;;;;;5116715;27;34169;-77
2022/07/26 12:42:24;;;;;;;1.52;1.00;;;26.00;1.00;;;;;;5090667;27;34222;-77
2022/07/26 12:44:50;;;;;;;3.40;1.20;;;26.00;1.00;;;;;;5154428;27;34091;-76
2022/07/26 12:47:17;;;;;;;3.22;1.27;;;26.10;1.00;;;;;;5048361;28;36360;-76
2022/07/26 12:49:45;;;;;;;1.45;0.90;;;26.10;1.00;;;;;;5046589;28;34333;-78
2022/07/26 12:52:12;;;;;;;1.10;1.00;;;26.20;1.00;;;;;;5065860;28;34100;-77
2022/07/26 12:54:39;;;;;;;2.75;0.80;;;26.30;1.00;;;;;;5064040;27;34090;-77
2022/07/26 12:57:05;;;;;;;1.83;1.00;;;26.40;1.00;;;;;;5054246;28;36183;-78
2022/07/26 12:59:31;;;;;;;0.90;0.90;;;26.40;1.00;;;;;;5061845;28;34269;-78
2022/07/26 13:01:57;;;;;;;3.05;1.00;;;26.50;1.00;;;;;;5061442;28;34287;-78
2022/07/26 13:04:23;;;;;;;1.25;0.80;;;26.70;1.00;;;;;;5054801;27;34159;-77
2022/07/26 13:06:49;;;;;;;1.73;0.73;;;26.80;1.00;;;;;;5108986;27;35518;-77